createdAt,value
2023-03-05T00:02:18.832Z,19.23
2023-03-05T00:04:46.566Z,20.13
2023-03-05T00:07:15.789Z,19.73
2023-03-05T00:09:43.309Z,18.77
2023-03-05T00:12:11.888Z,17.43
2023-03-05T00:14:40.301Z,19.73
2023-03-05T00:17:08.713Z,18.67
2023-03-05T00:19:37.857Z,19.43
2023-03-05T00:22:06.002Z,18.83
2023-03-05T00:24:37.966Z,19.33
2023-03-05T00:27:05.590Z,19.50
2023-03-05T00:29:36.502Z,19.53
2023-03-05T00:32:05.328Z,20.07
2023-03-05T00:34:32.919Z,18.90
2023-03-05T00:37:00.436Z,20.70
2023-03-05T00:39:28.056Z,20.77
2023-03-05T00:41:57.391Z,18.67
2023-03-05T00:44:25.278Z,19.53
2023-03-05T00:46:53.525Z,20.10
2023-03-05T00:49:22.300Z,20.07
2023-03-05T00:51:51.240Z,19.77
2023-03-05T00:54:18.864Z,20.57
2023-03-05T00:56:47.456Z,19.20
2023-03-05T00:59:16.946Z,17.93
2023-03-05T01:01:44.910Z,19.83
2023-03-05T01:04:12.733Z,20.97
2023-03-05T01:06:43.007Z,17.87
2023-03-05T01:09:11.242Z,19.27
2023-03-05T01:11:39.158Z,19.63
2023-03-05T01:14:07.975Z,18.87
2023-03-05T01:16:39.922Z,18.77
2023-03-05T01:19:07.860Z,20.23
2023-03-05T01:21:36.320Z,18.93
2023-03-05T01:24:04.028Z,18.50
2023-03-05T01:26:31.750Z,18.40
2023-03-05T01:28:59.957Z,18.60
2023-03-05T01:31:28.533Z,19.60
2023-03-05T01:33:57.797Z,19.20
2023-03-05T01:36:27.628Z,18.43
2023-03-05T01:38:55.290Z,18.43
2023-03-05T01:41:24.706Z,19.03
2023-03-05T01:43:53.292Z,18.30
2023-03-05T01:46:29.111Z,18.00
2023-03-05T01:49:03.051Z,18.27
2023-03-05T01:51:32.864Z,19.33
2023-03-05T01:54:02.205Z,18.63
2023-03-05T01:56:30.994Z,19.43
2023-03-05T01:59:05.469Z,17.70
2023-03-05T02:01:35.317Z,19.93
2023-03-05T02:04:04.598Z,18.13
2023-03-05T02:06:33.268Z,18.87
2023-03-05T02:09:01.953Z,19.07
2023-03-05T02:11:30.548Z,20.37
2023-03-05T02:13:59.297Z,18.17
2023-03-05T02:16:28.153Z,19.57
2023-03-05T02:18:55.956Z,20.00
2023-03-05T02:21:37.487Z,19.47
2023-03-05T02:24:07.791Z,18.43
2023-03-05T02:26:35.802Z,19.53
2023-03-05T02:29:04.188Z,20.00
2023-03-05T02:31:32.779Z,19.40
2023-03-05T02:34:00.658Z,18.20
2023-03-05T02:36:28.311Z,19.57
2023-03-05T02:38:59.199Z,19.23
2023-03-05T02:41:27.098Z,19.27
2023-03-05T02:43:54.736Z,18.40
2023-03-05T02:46:22.276Z,19.47
2023-03-05T02:48:51.312Z,19.03
2023-03-05T02:51:19.011Z,19.23
2023-03-05T02:53:46.563Z,19.63
2023-03-05T02:56:15.606Z,19.93
2023-03-05T02:58:43.898Z,18.10
2023-03-05T03:01:14.675Z,20.63
2023-03-05T03:03:42.382Z,19.37
2023-03-05T03:06:10.543Z,19.43
2023-03-05T03:08:39.263Z,19.80
2023-03-05T03:11:08.228Z,20.10
2023-03-05T03:13:38.642Z,19.67
2023-03-05T03:16:07.297Z,19.13
2023-03-05T03:18:36.900Z,19.00
2023-03-05T03:21:04.640Z,18.97
2023-03-05T03:23:33.231Z,18.70
2023-03-05T03:26:01.072Z,19.33
2023-03-05T03:28:28.729Z,19.63
2023-03-05T03:30:58.003Z,19.17
2023-03-05T03:33:26.313Z,19.23
2023-03-05T03:35:54.064Z,20.57
2023-03-05T03:38:22.201Z,18.10
2023-03-05T03:40:49.871Z,19.47
2023-03-05T03:43:18.943Z,20.87
2023-03-05T03:45:46.597Z,19.30
2023-03-05T03:48:15.615Z,20.27
2023-03-05T03:50:44.060Z,20.40
2023-03-05T03:53:14.157Z,19.10
2023-03-05T03:55:43.971Z,18.87
2023-03-05T03:58:11.970Z,19.07
2023-03-05T04:00:40.462Z,19.37
2023-03-05T04:03:08.803Z,19.80
2023-03-05T04:05:39.439Z,21.00
2023-03-05T04:08:12.452Z,21.27
2023-03-05T04:10:40.451Z,20.13
2023-03-05T04:13:08.153Z,20.90
2023-03-05T04:15:35.832Z,21.40
2023-03-05T04:18:03.648Z,20.27
2023-03-05T04:20:31.473Z,19.47
2023-03-05T04:23:00.422Z,21.20
2023-03-05T04:25:28.093Z,21.93
2023-03-05T04:27:55.641Z,21.40
2023-03-05T04:30:23.337Z,21.50
2023-03-05T04:32:50.886Z,21.17
2023-03-05T04:35:19.159Z,20.97
2023-03-05T04:37:47.383Z,20.10
2023-03-05T04:40:17.920Z,20.47
2023-03-05T04:42:45.926Z,20.83
2023-03-05T04:45:13.959Z,20.50
2023-03-05T04:47:42.009Z,18.73
2023-03-05T04:50:10.236Z,20.40
2023-03-05T04:52:40.632Z,21.03
2023-03-05T04:55:09.843Z,19.77
2023-03-05T04:57:42.130Z,21.73
2023-03-05T05:00:14.877Z,21.83
2023-03-05T05:02:42.916Z,21.10
2023-03-05T05:05:11.783Z,23.67
2023-03-05T05:07:39.326Z,20.27
2023-03-05T05:10:08.119Z,20.30
2023-03-05T05:12:35.859Z,21.23
2023-03-05T05:15:05.968Z,20.60
2023-03-05T05:17:34.033Z,21.30
2023-03-05T05:20:01.871Z,20.00
2023-03-05T05:22:32.517Z,20.23
2023-03-05T05:25:00.787Z,20.30
2023-03-05T05:27:29.681Z,21.27
2023-03-05T05:29:57.699Z,23.67
2023-03-05T05:32:27.551Z,22.63
2023-03-05T05:34:57.179Z,22.03
2023-03-05T05:37:26.091Z,20.47
2023-03-05T05:39:53.784Z,21.73
2023-03-05T05:42:22.579Z,19.67
2023-03-05T05:44:50.490Z,20.27
2023-03-05T05:47:18.467Z,21.77
2023-03-05T05:49:47.583Z,20.33
2023-03-05T05:52:15.492Z,20.60
2023-03-05T05:54:44.716Z,20.73
2023-03-05T05:57:12.219Z,20.43
2023-03-05T05:59:40.350Z,21.17
2023-03-05T06:02:08.856Z,19.63
2023-03-05T06:04:37.023Z,20.23
2023-03-05T06:07:06.024Z,22.50
2023-03-05T06:09:36.598Z,23.37
2023-03-05T06:12:04.575Z,20.33
2023-03-05T06:14:32.291Z,22.20
2023-03-05T06:17:00.938Z,23.17
2023-03-05T06:19:29.047Z,21.10
2023-03-05T06:21:57.541Z,21.47
2023-03-05T06:24:26.683Z,23.50
2023-03-05T06:26:54.627Z,25.70
2023-03-05T06:29:22.216Z,21.77
2023-03-05T06:31:50.416Z,22.37
2023-03-05T06:34:17.955Z,30.40
2023-03-05T06:36:45.704Z,24.80
2023-03-05T06:39:13.364Z,23.53
2023-03-05T06:41:42.275Z,25.40
2023-03-05T06:44:09.789Z,26.17
2023-03-05T06:46:39.772Z,24.87
2023-03-05T06:49:09.522Z,22.60
2023-03-05T06:51:38.079Z,23.00
2023-03-05T06:54:07.218Z,22.47
2023-03-05T06:56:37.342Z,21.83
2023-03-05T06:59:07.064Z,22.90
2023-03-05T07:01:35.602Z,22.87
2023-03-05T07:04:09.394Z,26.07
2023-03-05T07:06:38.235Z,25.10
2023-03-05T07:09:08.339Z,22.60
2023-03-05T07:11:35.931Z,23.07
2023-03-05T07:14:04.002Z,22.30
2023-03-05T07:16:34.279Z,21.97
2023-03-05T07:19:03.787Z,23.30
2023-03-05T07:21:32.743Z,22.40
2023-03-05T07:24:02.709Z,22.40
2023-03-05T07:26:31.155Z,23.63
2023-03-05T07:28:59.524Z,22.43
2023-03-05T07:31:30.989Z,20.37
2023-03-05T07:34:00.929Z,21.10
2023-03-05T07:36:29.196Z,20.37
2023-03-05T07:38:56.774Z,24.33
2023-03-05T07:41:24.486Z,22.87
2023-03-05T07:43:53.809Z,21.50
2023-03-05T07:46:22.655Z,21.47
2023-03-05T07:48:50.385Z,25.20
2023-03-05T07:51:20.662Z,25.93
2023-03-05T07:53:48.748Z,24.83
2023-03-05T07:56:21.853Z,22.67
2023-03-05T07:58:49.437Z,23.47
2023-03-05T08:01:17.244Z,23.77
2023-03-05T08:03:45.644Z,23.03
2023-03-05T08:06:13.836Z,23.10
2023-03-05T08:08:42.959Z,21.67
2023-03-05T08:11:11.389Z,22.13
2023-03-05T08:13:39.448Z,23.67
2023-03-05T08:16:07.410Z,20.80
2023-03-05T08:18:35.126Z,20.37
2023-03-05T08:21:02.749Z,20.77
2023-03-05T08:23:30.375Z,19.17
2023-03-05T08:25:59.394Z,19.33
2023-03-05T08:28:26.968Z,22.70
2023-03-05T08:30:54.540Z,91.97
2023-03-05T08:33:22.159Z,42.77
2023-03-05T08:35:50.031Z,37.33
2023-03-05T08:38:20.026Z,19.20
2023-03-05T08:40:49.138Z,15.83
2023-03-05T08:43:19.289Z,16.20
2023-03-05T08:45:47.522Z,15.80
2023-03-05T08:48:15.248Z,15.50
2023-03-05T08:50:42.916Z,15.88
2023-03-05T08:53:10.465Z,15.50
2023-03-05T08:55:38.504Z,15.00
2023-03-05T08:58:06.046Z,14.20
2023-03-05T09:00:34.952Z,16.20
2023-03-05T09:03:02.530Z,16.83
2023-03-05T09:05:30.089Z,18.37
2023-03-05T09:08:00.490Z,15.33
2023-03-05T09:10:28.057Z,15.87
2023-03-05T09:12:55.551Z,15.83
2023-03-05T09:15:23.072Z,14.23
2023-03-05T09:17:51.993Z,15.38
2023-03-05T09:20:19.669Z,13.53
2023-03-05T09:22:47.326Z,13.23
2023-03-05T09:25:16.495Z,13.13
2023-03-05T09:27:45.349Z,14.97
2023-03-05T09:30:14.515Z,15.32
2023-03-05T09:32:42.175Z,15.10
2023-03-05T09:35:11.826Z,14.93
2023-03-05T09:37:39.363Z,13.20
2023-03-05T09:40:07.608Z,13.63
2023-03-05T09:42:45.841Z,23.57
2023-03-05T09:45:20.334Z,21.48
2023-03-05T09:47:53.254Z,14.35
2023-03-05T09:50:32.529Z,17.77
2023-03-05T09:53:02.367Z,13.75
2023-03-05T09:55:33.200Z,13.80
2023-03-05T09:58:04.622Z,11.90
2023-03-05T10:00:35.303Z,11.70
2023-03-05T10:03:06.166Z,13.63
2023-03-05T10:05:46.961Z,13.35
2023-03-05T10:08:15.676Z,13.38
2023-03-05T10:10:45.187Z,12.30
2023-03-05T10:13:15.132Z,12.10
2023-03-05T10:15:50.390Z,12.43
2023-03-05T10:18:22.896Z,11.63
2023-03-05T10:20:57.790Z,11.88
2023-03-05T10:23:32.717Z,12.07
2023-03-05T10:26:07.112Z,11.52
2023-03-05T10:28:43.786Z,11.67
2023-03-05T10:31:29.475Z,12.38
2023-03-05T10:34:03.184Z,11.27
2023-03-05T10:36:38.880Z,12.07
2023-03-05T10:39:13.667Z,12.52
2023-03-05T10:41:44.250Z,12.15
2023-03-05T10:44:16.581Z,12.20
2023-03-05T10:46:45.795Z,12.38
2023-03-05T10:49:16.741Z,11.65
2023-03-05T10:51:49.563Z,11.77
2023-03-05T10:54:20.133Z,11.63
2023-03-05T10:56:47.691Z,10.73
2023-03-05T10:59:15.244Z,12.00
2023-03-05T11:01:43.039Z,11.60
2023-03-05T11:04:26.504Z,9.90
2023-03-05T11:06:55.513Z,11.88
2023-03-05T11:09:26.534Z,10.85
2023-03-05T11:12:05.827Z,11.57
2023-03-05T11:14:34.149Z,11.80
2023-03-05T11:17:02.148Z,11.45
2023-03-05T11:19:32.874Z,10.82
2023-03-05T11:22:07.789Z,12.45
2023-03-05T11:24:35.362Z,11.50
2023-03-05T11:27:03.066Z,11.60
2023-03-05T11:29:31.842Z,11.00
2023-03-05T11:32:15.585Z,12.35
2023-03-05T11:34:43.248Z,12.27
2023-03-05T11:37:21.092Z,13.38
2023-03-05T11:39:48.640Z,12.43
2023-03-05T11:42:19.333Z,12.63
2023-03-05T11:44:47.941Z,12.00
2023-03-05T11:47:19.256Z,12.98
2023-03-05T11:49:47.566Z,13.52
2023-03-05T11:52:19.789Z,12.43
2023-03-05T11:54:54.426Z,12.45
2023-03-05T11:57:24.095Z,12.80
2023-03-05T11:59:54.393Z,13.23
2023-03-05T12:02:23.777Z,13.98
2023-03-05T12:04:51.599Z,12.63
2023-03-05T12:07:23.110Z,12.52
2023-03-05T12:09:52.294Z,13.30
2023-03-05T12:12:27.179Z,13.37
2023-03-05T12:14:58.289Z,12.40
2023-03-05T12:17:28.296Z,12.05
2023-03-05T12:19:59.442Z,12.45
2023-03-05T12:22:34.111Z,12.07
2023-03-05T12:25:16.517Z,12.10
2023-03-05T12:27:44.902Z,12.02
2023-03-05T12:30:31.038Z,11.52
2023-03-05T12:32:58.855Z,12.23
2023-03-05T12:35:28.740Z,12.60
2023-03-05T12:38:24.384Z,12.52
2023-03-05T12:40:53.176Z,14.63
2023-03-05T12:43:31.688Z,14.02
2023-03-05T12:46:18.159Z,13.90
2023-03-05T12:48:46.011Z,13.38
2023-03-05T12:51:14.845Z,13.32
2023-03-05T12:53:43.794Z,11.45
2023-03-05T12:56:17.055Z,13.07
2023-03-05T12:58:45.537Z,13.07
2023-03-05T13:01:30.360Z,12.47
2023-03-05T13:03:59.605Z,12.60
2023-03-05T13:06:30.060Z,12.10
2023-03-05T13:08:59.890Z,13.07
2023-03-05T13:11:28.974Z,12.38
2023-03-05T13:13:57.413Z,13.05
2023-03-05T13:16:26.332Z,11.75
2023-03-05T13:18:54.627Z,12.52
2023-03-05T13:21:26.620Z,12.98
2023-03-05T13:23:58.745Z,12.82
2023-03-05T13:26:28.286Z,13.77
2023-03-05T13:29:07.426Z,14.25
2023-03-05T13:31:36.175Z,12.60
2023-03-05T13:34:10.249Z,13.15
2023-03-05T13:36:41.026Z,12.43
2023-03-05T13:39:08.942Z,12.45
2023-03-05T13:41:37.890Z,12.63
2023-03-05T13:44:05.535Z,12.88
2023-03-05T13:46:33.962Z,11.98
2023-03-05T13:49:16.975Z,12.40
2023-03-05T13:51:45.248Z,12.93
2023-03-05T13:54:14.687Z,13.55
2023-03-05T13:56:51.102Z,11.55
2023-03-05T13:59:20.133Z,11.88
2023-03-05T14:01:48.253Z,12.20
2023-03-05T14:04:20.763Z,11.65
2023-03-05T14:06:49.963Z,13.95
2023-03-05T14:09:22.288Z,12.80
2023-03-05T14:11:55.534Z,14.68
2023-03-05T14:14:24.263Z,11.95
2023-03-05T14:16:52.146Z,11.93
2023-03-05T14:19:32.820Z,13.00
2023-03-05T14:22:00.429Z,12.05
2023-03-05T14:24:31.215Z,11.65
2023-03-05T14:27:03.286Z,12.20
2023-03-05T14:29:30.914Z,11.95
2023-03-05T14:32:00.309Z,11.15
2023-03-05T14:34:30.276Z,11.15
2023-03-05T14:36:59.261Z,9.98
2023-03-05T14:39:37.891Z,9.93
2023-03-05T14:42:23.901Z,9.10
2023-03-05T14:44:52.809Z,9.45
2023-03-05T14:47:20.870Z,10.02
2023-03-05T14:49:48.517Z,13.00
2023-03-05T14:52:17.683Z,24.48
2023-03-05T14:54:45.526Z,12.77
2023-03-05T14:57:17.846Z,9.65
2023-03-05T14:59:45.824Z,10.18
2023-03-05T15:02:18.894Z,10.53
2023-03-05T15:04:48.217Z,9.88
2023-03-05T15:07:18.060Z,10.20
2023-03-05T15:09:46.067Z,10.35
2023-03-05T15:12:14.382Z,10.07
2023-03-05T15:14:43.533Z,10.52
2023-03-05T15:17:15.089Z,11.48
2023-03-05T15:19:47.121Z,10.50
2023-03-05T15:22:15.300Z,10.98
2023-03-05T15:24:43.335Z,10.73
2023-03-05T15:27:11.540Z,11.15
2023-03-05T15:29:40.285Z,10.57
2023-03-05T15:32:08.496Z,10.30
2023-03-05T15:34:36.832Z,12.13
2023-03-05T15:37:06.230Z,11.65
2023-03-05T15:39:37.603Z,11.50
2023-03-05T15:42:06.597Z,11.33
2023-03-05T15:44:34.887Z,14.18
2023-03-05T15:47:02.854Z,14.32
2023-03-05T15:49:31.570Z,12.18
2023-03-05T15:51:59.133Z,10.85
2023-03-05T15:54:31.052Z,11.30
2023-03-05T15:56:58.689Z,11.85
2023-03-05T15:59:26.688Z,11.33
2023-03-05T16:01:54.774Z,11.48
2023-03-05T16:04:22.579Z,11.10
2023-03-05T16:06:52.036Z,10.30
2023-03-05T16:09:20.342Z,10.02
2023-03-05T16:11:51.571Z,10.55
2023-03-05T16:14:22.663Z,9.47
2023-03-05T16:16:50.867Z,10.40
2023-03-05T16:19:19.819Z,9.05
2023-03-05T16:21:47.647Z,9.07
2023-03-05T16:24:15.661Z,9.77
2023-03-05T16:26:46.299Z,11.20
2023-03-05T16:29:15.459Z,10.87
2023-03-05T16:31:45.532Z,9.85
2023-03-05T16:34:14.266Z,10.77
2023-03-05T16:36:42.415Z,11.52
2023-03-05T16:39:10.409Z,13.43
2023-03-05T16:41:38.151Z,15.07
2023-03-05T16:44:06.062Z,13.65
2023-03-05T16:46:35.362Z,14.75
2023-03-05T16:49:03.152Z,15.23
2023-03-05T16:51:30.866Z,13.48
2023-03-05T16:53:58.634Z,12.88
2023-03-05T16:56:26.306Z,11.47
2023-03-05T16:58:55.478Z,13.00
2023-03-05T17:01:23.799Z,12.85
2023-03-05T17:03:53.682Z,13.97
2023-03-05T17:06:22.463Z,11.63
2023-03-05T17:08:50.966Z,11.53
2023-03-05T17:11:19.199Z,11.33
2023-03-05T17:13:49.022Z,11.83
2023-03-05T17:16:17.978Z,13.00
2023-03-05T17:18:45.735Z,12.57
2023-03-05T17:21:14.804Z,12.20
2023-03-05T17:23:42.524Z,11.60
2023-03-05T17:26:11.650Z,12.50
2023-03-05T17:28:39.693Z,11.70
2023-03-05T17:31:07.202Z,10.97
2023-03-05T17:33:35.605Z,11.43
2023-03-05T17:36:03.568Z,11.10
2023-03-05T17:38:32.480Z,10.27
2023-03-05T17:41:00.131Z,10.27
2023-03-05T17:43:27.971Z,11.70
2023-03-05T17:45:59.596Z,12.37
2023-03-05T17:48:27.539Z,11.97
2023-03-05T17:50:55.136Z,14.23
2023-03-05T17:53:23.454Z,15.17
2023-03-05T17:55:52.694Z,14.43
2023-03-05T17:58:20.675Z,12.73
2023-03-05T18:00:48.330Z,15.83
2023-03-05T18:03:15.900Z,15.50
2023-03-05T18:05:43.487Z,13.73
2023-03-05T18:08:11.012Z,11.00
2023-03-05T18:10:38.552Z,10.82
2023-03-05T18:13:07.651Z,11.00
2023-03-05T18:15:37.208Z,10.10
2023-03-05T18:18:04.899Z,11.47
2023-03-05T18:20:33.565Z,11.33
2023-03-05T18:23:02.217Z,10.70
2023-03-05T18:25:31.687Z,10.33
2023-03-05T18:27:59.762Z,12.87
2023-03-05T18:30:29.255Z,12.53
2023-03-05T18:32:57.056Z,11.60
2023-03-05T18:35:25.005Z,17.27
2023-03-05T18:37:52.647Z,13.60
2023-03-05T18:40:21.854Z,13.02
2023-03-05T18:42:49.713Z,11.50
2023-03-05T18:45:18.097Z,10.93
2023-03-05T18:47:47.955Z,12.23
2023-03-05T18:50:16.918Z,14.07
2023-03-05T18:52:44.510Z,13.80
2023-03-05T18:55:15.557Z,13.00
2023-03-05T18:57:43.055Z,16.10
2023-03-05T19:00:12.044Z,14.00
2023-03-05T19:02:39.566Z,15.20
2023-03-05T19:05:08.974Z,15.13
2023-03-05T19:07:38.049Z,14.23
2023-03-05T19:10:08.531Z,15.17
2023-03-05T19:12:41.883Z,14.17
2023-03-05T19:15:09.919Z,13.03
2023-03-05T19:17:37.666Z,13.00
2023-03-05T19:20:07.816Z,13.27
2023-03-05T19:22:36.765Z,12.37
2023-03-05T19:25:04.331Z,13.63
2023-03-05T19:27:31.850Z,12.97
2023-03-05T19:30:00.155Z,13.30
2023-03-05T19:32:27.734Z,13.50
2023-03-05T19:34:56.317Z,12.90
2023-03-05T19:37:24.095Z,12.68
2023-03-05T19:39:53.197Z,13.80
2023-03-05T19:42:20.785Z,14.03
2023-03-05T19:44:48.529Z,14.20
2023-03-05T19:47:16.057Z,12.87
2023-03-05T19:49:43.736Z,13.73
2023-03-05T19:52:11.326Z,13.10
2023-03-05T19:54:38.882Z,14.80
2023-03-05T19:57:07.831Z,14.90
2023-03-05T19:59:35.528Z,13.70
2023-03-05T20:02:03.206Z,14.70
2023-03-05T20:04:30.751Z,14.63
2023-03-05T20:06:58.914Z,14.47
2023-03-05T20:09:26.556Z,14.67
2023-03-05T20:11:54.056Z,15.03
2023-03-05T20:14:23.140Z,13.07
2023-03-05T20:16:50.681Z,13.40
2023-03-05T20:19:20.235Z,12.77
2023-03-05T20:21:47.770Z,13.17
2023-03-05T20:24:16.115Z,14.50
2023-03-05T20:26:44.464Z,12.63
2023-03-05T20:29:13.461Z,13.97
2023-03-05T20:31:43.757Z,12.43
2023-03-05T20:34:12.772Z,12.00
2023-03-05T20:36:40.584Z,11.60
2023-03-05T20:39:08.395Z,12.33
2023-03-05T20:41:37.680Z,11.73
2023-03-05T20:44:05.572Z,13.50
2023-03-05T20:46:34.144Z,13.67
2023-03-05T20:49:03.504Z,13.23
2023-03-05T20:51:31.796Z,13.30
2023-03-05T20:54:02.481Z,13.10
2023-03-05T20:56:32.306Z,12.87
2023-03-05T20:59:01.122Z,13.37
2023-03-05T21:01:28.753Z,13.40
2023-03-05T21:03:57.205Z,12.97
2023-03-05T21:06:26.513Z,14.67
2023-03-05T21:08:54.191Z,12.50
2023-03-05T21:11:22.042Z,12.93
2023-03-05T21:13:49.593Z,12.33
2023-03-05T21:16:18.804Z,11.87
2023-03-05T21:18:46.341Z,12.80
2023-03-05T21:21:13.887Z,13.47
2023-03-05T21:23:42.959Z,13.27
2023-03-05T21:26:10.659Z,14.10
2023-03-05T21:28:40.010Z,15.83
2023-03-05T21:31:08.548Z,15.27
2023-03-05T21:33:36.134Z,15.88
2023-03-05T21:36:03.837Z,15.20
2023-03-05T21:38:33.940Z,14.53
2023-03-05T21:41:03.455Z,14.67
2023-03-05T21:43:31.845Z,15.47
2023-03-05T21:46:01.060Z,19.67
2023-03-05T21:48:28.845Z,16.10
2023-03-05T21:50:57.239Z,15.73
2023-03-05T21:53:24.963Z,19.87
2023-03-05T21:56:04.176Z,19.60
2023-03-05T21:58:34.227Z,19.83
2023-03-05T22:01:01.871Z,15.80
2023-03-05T22:03:30.056Z,15.80
2023-03-05T22:05:57.746Z,15.13
2023-03-05T22:08:25.493Z,15.33
2023-03-05T22:10:54.356Z,14.57
2023-03-05T22:13:22.468Z,14.63
2023-03-05T22:15:52.523Z,15.90
2023-03-05T22:18:21.377Z,15.77
2023-03-05T22:20:49.440Z,16.27
2023-03-05T22:23:17.492Z,16.17
2023-03-05T22:25:45.246Z,17.23
2023-03-05T22:28:13.317Z,15.17
2023-03-05T22:30:43.984Z,15.83
2023-03-05T22:33:13.152Z,17.10
2023-03-05T22:35:41.231Z,15.20
2023-03-05T22:38:08.914Z,16.10
2023-03-05T22:40:37.624Z,16.30
2023-03-05T22:43:05.122Z,16.03
2023-03-05T22:45:32.575Z,15.47
2023-03-05T22:48:00.147Z,16.30
2023-03-05T22:50:28.995Z,14.90
2023-03-05T22:52:56.599Z,15.40
2023-03-05T22:55:24.190Z,14.23
2023-03-05T22:57:51.694Z,14.60
2023-03-05T23:00:21.716Z,14.10
2023-03-05T23:02:49.264Z,14.53
2023-03-05T23:05:16.970Z,14.20
2023-03-05T23:07:46.009Z,13.57
2023-03-05T23:10:15.398Z,14.47
2023-03-05T23:12:46.260Z,13.20
2023-03-05T23:15:15.028Z,14.30
2023-03-05T23:17:42.803Z,13.53
2023-03-05T23:20:11.655Z,14.33
2023-03-05T23:22:40.417Z,14.77
2023-03-05T23:25:10.090Z,14.03
2023-03-05T23:27:37.770Z,13.97
2023-03-05T23:30:16.350Z,13.97
2023-03-05T23:32:47.894Z,16.40
2023-03-05T23:35:16.188Z,16.30
2023-03-05T23:37:43.730Z,15.47
2023-03-05T23:40:15.406Z,14.30
2023-03-05T23:42:43.258Z,14.33
2023-03-05T23:45:11.380Z,15.43
2023-03-05T23:47:39.091Z,16.07
2023-03-05T23:50:07.658Z,15.93
2023-03-05T23:52:35.152Z,15.27
2023-03-05T23:55:02.704Z,15.90
2023-03-05T23:57:31.563Z,14.97
2023-03-05T23:59:59.111Z,15.37
